Anapolis, Brazil
Current Conditions -  °F | °C
As of 3:00 PM on Friday 21 Nov 2014 (Local Time) from SBAN Reporting Station
Broken Clouds Broken Clouds  
Wind Chill: 86°   Ceiling: 3500
Heat Index: 86°   Visibility: 6mi
Dew Point: 57°   Wind: 3mph
Humidity: 37%   Direction: 360°N
Pressure: 30.03"   Gusts: NA
Location:  16.32°S, 48.96°W
Report Text: SBAN 211700Z 36003KT 9999 BKN035 FEW040TCU 30/14 Q1017
Loading
Personal Weather Stations






























Interactive Weather Map New forecast layout! Learn more

10-Day Weather Forecast

Advertisements
Track Severe Weather on mobile